createdAt,value
2022-09-23T00:01:15.721Z,6.68
2022-09-23T00:03:48.802Z,2.63
2022-09-23T00:06:24.196Z,10.43
2022-09-23T00:08:51.674Z,4.30
2022-09-23T00:11:21.270Z,3.90
2022-09-23T00:13:49.912Z,2.63
2022-09-23T00:16:20.352Z,4.35
2022-09-23T00:18:48.577Z,3.67
2022-09-23T00:21:15.271Z,3.13
2022-09-23T00:23:43.572Z,6.63
2022-09-23T00:26:12.824Z,3.90
2022-09-23T00:28:40.588Z,5.93
2022-09-23T00:31:14.682Z,3.95
2022-09-23T00:36:12.711Z,3.67
2022-09-23T00:38:39.439Z,2.88
2022-09-23T00:41:06.528Z,6.07
2022-09-23T00:43:38.118Z,7.25
2022-09-23T00:46:06.982Z,4.50
2022-09-23T00:48:36.985Z,3.42
2022-09-23T00:51:06.943Z,4.78
2022-09-23T00:53:34.887Z,4.18
2022-09-23T00:56:07.373Z,3.85
2022-09-23T00:58:38.375Z,5.95
2022-09-23T01:01:05.358Z,3.53
2022-09-23T01:03:32.272Z,4.50
2022-09-23T01:05:59.659Z,3.15
2022-09-23T01:08:29.260Z,3.50
2022-09-23T01:11:20.802Z,3.88
2022-09-23T01:14:05.346Z,2.85
2022-09-23T01:16:51.264Z,4.00
2022-09-23T01:19:30.204Z,3.83
2022-09-23T01:22:15.519Z,3.90
2022-09-23T01:24:47.516Z,3.30
2022-09-23T01:27:47.476Z,3.78
2022-09-23T01:30:20.857Z,3.80
2022-09-23T01:32:57.045Z,2.53
2022-09-23T01:35:43.402Z,7.43
2022-09-23T01:38:34.447Z,2.67
2022-09-23T01:41:24.845Z,3.28
2022-09-23T01:44:08.829Z,2.92
2022-09-23T01:46:40.557Z,3.80
2022-09-23T01:49:27.666Z,4.47
2022-09-23T01:52:10.877Z,2.75
2022-09-23T01:54:42.350Z,5.47
2022-09-23T01:57:22.736Z,3.60
2022-09-23T01:59:59.401Z,4.40
2022-09-23T02:02:37.522Z,3.55
2022-09-23T02:05:42.131Z,3.15
2022-09-23T02:08:21.053Z,2.67
2022-09-23T02:10:52.191Z,5.20
2022-09-23T02:13:38.843Z,3.58
2022-09-23T02:16:12.514Z,5.38
2022-09-23T02:18:48.600Z,4.25
2022-09-23T02:21:17.517Z,2.83
2022-09-23T02:23:58.440Z,4.72
2022-09-23T02:26:35.928Z,5.28
2022-09-23T02:29:18.248Z,5.30
2022-09-23T02:32:23.463Z,3.90
2022-09-23T02:35:13.367Z,2.95
2022-09-23T02:38:18.783Z,3.72
2022-09-23T02:41:04.753Z,2.30
2022-09-23T02:43:44.012Z,4.22
2022-09-23T02:46:10.886Z,3.58
2022-09-23T02:48:50.369Z,3.67
2022-09-23T02:51:17.150Z,5.65
2022-09-23T02:53:45.846Z,8.15
2022-09-23T02:56:20.254Z,4.45
2022-09-23T02:58:52.665Z,6.22
2022-09-23T03:01:51.666Z,4.43
2022-09-23T03:05:01.461Z,2.80
2022-09-23T03:07:41.713Z,3.75
2022-09-23T03:10:40.622Z,3.50
2022-09-23T03:13:29.982Z,2.42
2022-09-23T03:16:09.198Z,4.57
2022-09-23T03:18:45.859Z,3.95
2022-09-23T03:21:22.921Z,3.00
2022-09-23T03:23:51.016Z,6.93
2022-09-23T03:26:28.459Z,7.07
2022-09-23T03:28:55.303Z,5.65
2022-09-23T03:31:22.876Z,3.17
2022-09-23T03:33:57.832Z,5.32
2022-09-23T03:36:51.687Z,3.72
2022-09-23T03:39:26.546Z,2.90
2022-09-23T03:41:58.004Z,3.03
2022-09-23T03:44:24.881Z,3.78
2022-09-23T03:46:53.269Z,2.55
2022-09-23T03:49:27.852Z,4.97
2022-09-23T03:51:58.466Z,3.97
2022-09-23T03:54:25.945Z,4.32
2022-09-23T03:56:52.627Z,3.35
2022-09-23T03:59:19.466Z,2.13
2022-09-23T04:01:46.273Z,3.95
2022-09-23T04:04:13.148Z,6.72
2022-09-23T04:06:40.037Z,6.78
2022-09-23T04:09:06.834Z,2.60
2022-09-23T04:11:33.746Z,4.22
2022-09-23T04:14:00.425Z,3.42
2022-09-23T04:16:27.987Z,4.10
2022-09-23T04:18:55.787Z,4.53
2022-09-23T04:21:22.548Z,5.53
2022-09-23T04:23:49.238Z,4.68
2022-09-23T04:26:19.311Z,4.25
2022-09-23T04:28:46.047Z,4.30
2022-09-23T04:31:13.087Z,2.65
2022-09-23T04:33:39.919Z,2.72
2022-09-23T04:36:07.200Z,5.10
2022-09-23T04:38:34.245Z,4.40
2022-09-23T04:41:01.013Z,5.93
2022-09-23T04:43:27.745Z,4.13
2022-09-23T04:45:59.834Z,3.95
2022-09-23T04:48:26.708Z,3.38
2022-09-23T04:50:54.855Z,6.57
2022-09-23T04:53:22.595Z,4.50
2022-09-23T04:55:50.282Z,4.20
2022-09-23T04:58:17.241Z,3.50
2022-09-23T05:00:45.286Z,2.88
2022-09-23T05:03:15.190Z,3.50
2022-09-23T05:05:41.936Z,2.83
2022-09-23T05:08:09.010Z,3.65
2022-09-23T05:10:35.726Z,7.70
2022-09-23T05:13:02.472Z,3.47
2022-09-23T05:15:29.235Z,4.43
2022-09-23T05:17:59.079Z,7.22
2022-09-23T05:20:26.256Z,5.25
2022-09-23T05:22:55.590Z,5.10
2022-09-23T05:25:25.652Z,3.78
2022-09-23T05:27:53.445Z,4.60
2022-09-23T05:30:20.190Z,3.65
2022-09-23T05:32:46.949Z,4.30
2022-09-23T05:35:13.734Z,5.43
2022-09-23T05:37:40.447Z,3.00
2022-09-23T05:40:08.658Z,4.07
2022-09-23T05:42:36.532Z,3.38
2022-09-23T05:45:07.634Z,3.85
2022-09-23T05:47:34.380Z,2.65
2022-09-23T05:50:02.399Z,4.07
2022-09-23T05:52:29.223Z,4.68
2022-09-23T05:55:00.495Z,5.90
2022-09-23T05:57:27.402Z,3.30
2022-09-23T05:59:58.221Z,3.13
2022-09-23T06:02:24.962Z,4.57
2022-09-23T06:04:51.716Z,3.72
2022-09-23T06:07:19.119Z,3.42
2022-09-23T06:09:45.907Z,3.55
2022-09-23T06:12:14.182Z,4.13
2022-09-23T06:14:40.903Z,3.25
2022-09-23T06:17:07.763Z,3.83
2022-09-23T06:19:34.514Z,4.72
2022-09-23T06:22:01.401Z,2.75
2022-09-23T06:24:31.309Z,5.55
2022-09-23T06:26:58.882Z,3.17
2022-09-23T06:29:25.641Z,5.57
2022-09-23T06:31:52.468Z,3.83
2022-09-23T06:34:21.039Z,6.88
2022-09-23T06:36:50.179Z,4.38
2022-09-23T06:39:16.924Z,4.05
2022-09-23T06:41:46.627Z,6.60
2022-09-23T06:44:16.502Z,6.57
2022-09-23T06:46:47.141Z,5.47
2022-09-23T06:49:14.029Z,5.25
2022-09-23T06:51:42.253Z,3.50
2022-09-23T06:54:09.162Z,4.80
2022-09-23T06:56:39.502Z,7.60
2022-09-23T06:59:11.099Z,6.95
2022-09-23T07:01:39.219Z,4.10
2022-09-23T07:04:08.850Z,4.93
2022-09-23T07:12:46.231Z,4.75
2022-09-23T07:15:13.019Z,2.63
2022-09-23T07:17:45.386Z,4.15
2022-09-23T07:20:13.436Z,4.20
2022-09-23T07:22:40.112Z,5.90
2022-09-23T07:25:07.207Z,6.93
2022-09-23T07:27:35.655Z,4.15
2022-09-23T07:30:02.327Z,4.57
2022-09-23T07:32:35.150Z,8.52
2022-09-23T07:35:12.485Z,5.28
2022-09-23T07:37:39.804Z,6.00
2022-09-23T07:40:08.840Z,4.30
2022-09-23T07:42:35.557Z,5.40
2022-09-23T07:45:03.969Z,5.20
2022-09-23T07:47:31.589Z,6.03
2022-09-23T07:50:01.323Z,4.60
2022-09-23T07:52:28.248Z,5.30
2022-09-23T07:54:56.617Z,7.45
2022-09-23T07:57:24.060Z,2.80
2022-09-23T07:59:51.868Z,3.88
2022-09-23T08:02:18.633Z,3.22
2022-09-23T08:04:46.782Z,4.47
2022-09-23T08:07:14.756Z,4.35
2022-09-23T08:09:45.959Z,8.07
2022-09-23T08:12:16.876Z,3.22
2022-09-23T08:14:44.061Z,4.80
2022-09-23T08:17:13.600Z,3.63
2022-09-23T08:19:45.643Z,4.00
2022-09-23T08:22:12.452Z,4.90
2022-09-23T08:24:40.325Z,2.80
2022-09-23T08:27:07.082Z,4.93
2022-09-23T08:29:35.005Z,5.22
2022-09-23T08:32:02.843Z,5.13
2022-09-23T08:34:33.646Z,5.18
2022-09-23T08:37:02.980Z,3.45
2022-09-23T08:39:33.748Z,4.55
2022-09-23T08:42:19.803Z,3.15
2022-09-23T08:45:05.747Z,4.65
2022-09-23T08:47:39.159Z,9.32
2022-09-23T08:50:23.344Z,5.22
2022-09-23T08:52:55.098Z,3.88
2022-09-23T08:55:47.933Z,7.40
2022-09-23T08:58:30.226Z,5.53
2022-09-23T09:01:08.952Z,6.47
2022-09-23T09:03:54.389Z,5.88
2022-09-23T09:06:51.866Z,6.18
2022-09-23T09:09:49.080Z,5.85
2022-09-23T09:12:17.330Z,5.38
2022-09-23T09:15:03.372Z,5.05
2022-09-23T09:17:51.757Z,3.92
2022-09-23T09:20:58.167Z,7.30
2022-09-23T09:23:50.181Z,4.63
2022-09-23T09:26:32.070Z,6.20
2022-09-23T09:29:23.699Z,5.65
2022-09-23T09:31:53.178Z,3.92
2022-09-23T09:34:41.346Z,6.13
2022-09-23T09:37:12.823Z,4.03
2022-09-23T09:39:39.585Z,10.82
2022-09-23T09:42:06.599Z,11.55
2022-09-23T09:44:59.457Z,8.25
2022-09-23T09:47:46.913Z,4.07
2022-09-23T09:50:36.621Z,13.07
2022-09-23T09:53:21.435Z,11.40
2022-09-23T09:56:09.718Z,7.30
2022-09-23T09:58:49.438Z,7.20
2022-09-23T10:01:23.684Z,7.80
2022-09-23T10:03:59.518Z,7.38
2022-09-23T10:06:27.840Z,9.60
2022-09-23T10:09:21.645Z,5.80
2022-09-23T10:12:11.353Z,8.73
2022-09-23T10:14:38.043Z,6.88
2022-09-23T10:17:07.218Z,8.82
2022-09-23T10:19:37.226Z,6.38
2022-09-23T10:22:14.769Z,6.97
2022-09-23T10:24:48.771Z,6.00
2022-09-23T10:27:16.104Z,6.47
2022-09-23T10:29:56.868Z,4.38
2022-09-23T10:32:30.844Z,6.13
2022-09-23T10:35:09.435Z,5.90
2022-09-23T10:37:44.660Z,5.60
2022-09-23T10:40:48.756Z,5.53
2022-09-23T10:43:49.405Z,5.72
2022-09-23T10:46:46.166Z,5.65
2022-09-23T10:49:51.151Z,9.70
2022-09-23T10:55:26.690Z,7.20
2022-09-23T10:58:25.200Z,6.03
2022-09-23T11:01:24.006Z,6.00
2022-09-23T11:04:12.702Z,5.38
2022-09-23T11:07:15.936Z,10.95
2022-09-23T11:09:51.682Z,7.38
2022-09-23T11:12:45.783Z,8.82
2022-09-23T11:15:39.717Z,8.88
2022-09-23T11:18:33.962Z,5.32
2022-09-23T11:21:27.790Z,5.63
2022-09-23T11:24:19.143Z,3.83
2022-09-23T11:27:25.502Z,2.47
2022-09-23T11:30:21.522Z,3.33
2022-09-23T11:32:51.803Z,7.45
2022-09-23T11:35:29.583Z,4.47
2022-09-23T11:38:21.768Z,4.28
2022-09-23T11:40:56.361Z,4.22
2022-09-23T11:43:28.630Z,5.65
2022-09-23T11:46:03.872Z,5.07
2022-09-23T11:48:46.157Z,5.75
2022-09-23T11:51:18.100Z,4.25
2022-09-23T11:53:56.170Z,4.57
2022-09-23T11:56:36.420Z,4.40
2022-09-23T11:59:09.475Z,5.65
2022-09-23T12:02:17.113Z,4.85
2022-09-23T12:04:58.644Z,3.95
2022-09-23T12:07:43.533Z,2.92
2022-09-23T12:10:11.937Z,4.93
2022-09-23T12:12:50.679Z,7.28
2022-09-23T12:15:39.901Z,3.33
2022-09-23T12:18:43.712Z,4.38
2022-09-23T12:21:49.154Z,4.90
2022-09-23T12:24:22.129Z,4.18
2022-09-23T12:26:56.243Z,4.78
2022-09-23T12:29:30.314Z,4.82
2022-09-23T12:31:57.220Z,2.70
2022-09-23T12:34:29.730Z,2.65
2022-09-23T12:37:04.345Z,3.15
2022-09-23T12:39:35.024Z,2.45
2022-09-23T12:42:21.843Z,5.70
2022-09-23T12:44:49.171Z,5.28
2022-09-23T12:47:25.176Z,2.50
2022-09-23T12:50:01.052Z,3.58
2022-09-23T12:52:31.568Z,5.00
2022-09-23T12:55:22.210Z,4.28
2022-09-23T12:57:49.134Z,6.05
2022-09-23T13:00:24.654Z,4.65
2022-09-23T13:03:15.031Z,2.92
2022-09-23T13:06:10.866Z,8.93
2022-09-23T13:08:40.278Z,5.50
2022-09-23T13:11:30.360Z,5.68
2022-09-23T13:14:01.980Z,9.40
2022-09-23T13:16:33.793Z,3.55
2022-09-23T13:19:28.432Z,6.90
2022-09-23T13:24:54.217Z,7.03
2022-09-23T13:27:28.148Z,4.33
2022-09-23T13:30:17.005Z,7.07
2022-09-23T13:32:52.142Z,8.75
2022-09-23T13:35:39.782Z,4.03
2022-09-23T13:38:26.408Z,6.18
2022-09-23T13:41:02.263Z,6.63
2022-09-23T13:43:41.818Z,7.45
2022-09-23T13:46:23.564Z,4.32
2022-09-23T13:48:54.754Z,3.90
2022-09-23T13:51:34.969Z,6.68
2022-09-23T13:54:04.633Z,6.05
2022-09-23T13:56:33.392Z,7.55
2022-09-23T13:59:28.326Z,5.35
2022-09-23T14:02:16.864Z,3.95
2022-09-23T14:04:44.874Z,5.10
2022-09-23T14:07:14.164Z,6.72
2022-09-23T14:09:44.349Z,8.40
2022-09-23T14:12:12.600Z,3.45
2022-09-23T14:14:41.551Z,5.53
2022-09-23T14:17:10.304Z,4.22
2022-09-23T14:19:37.538Z,6.07
2022-09-23T14:22:06.317Z,7.85
2022-09-23T14:24:37.028Z,5.95
2022-09-23T14:27:15.782Z,4.88
2022-09-23T14:29:44.854Z,7.47
2022-09-23T14:32:15.967Z,4.15
2022-09-23T14:35:05.732Z,6.15
2022-09-23T14:37:57.113Z,4.47
2022-09-23T14:40:38.639Z,5.22
2022-09-23T14:43:31.763Z,9.32
2022-09-23T14:45:59.473Z,3.53
2022-09-23T14:48:30.393Z,6.35
2022-09-23T14:51:13.212Z,4.35
2022-09-23T14:53:46.578Z,8.35
2022-09-23T14:56:20.023Z,5.57
2022-09-23T14:58:58.262Z,4.35
2022-09-23T15:01:38.882Z,9.63
2022-09-23T15:04:35.403Z,4.57
2022-09-23T15:07:17.880Z,5.95
2022-09-23T15:09:45.781Z,7.45
2022-09-23T15:12:15.292Z,6.95
2022-09-23T15:14:49.237Z,6.15
2022-09-23T15:17:32.597Z,5.05
2022-09-23T15:20:20.349Z,7.45
2022-09-23T15:22:50.359Z,5.25
2022-09-23T15:25:20.883Z,9.90
2022-09-23T15:28:12.444Z,3.85
2022-09-23T15:30:41.642Z,3.33
2022-09-23T15:33:15.088Z,5.47
2022-09-23T15:35:51.593Z,9.35
2022-09-23T15:38:19.602Z,3.20
2022-09-23T15:40:46.936Z,5.15
2022-09-23T15:43:21.039Z,9.10
2022-09-23T15:45:48.700Z,7.57
2022-09-23T15:48:19.560Z,7.28
2022-09-23T15:50:47.518Z,5.28
2022-09-23T15:53:20.910Z,3.80
2022-09-23T15:55:50.440Z,5.53
2022-09-23T15:58:18.243Z,5.07
2022-09-23T16:00:51.101Z,4.60
2022-09-23T16:03:23.180Z,5.43
2022-09-23T16:05:50.458Z,5.35
2022-09-23T16:08:20.526Z,8.27
2022-09-23T16:10:48.345Z,7.72
2022-09-23T16:13:15.357Z,8.02
2022-09-23T16:15:43.271Z,14.80
2022-09-23T16:18:11.982Z,35.42
2022-09-23T16:20:45.042Z,38.00
2022-09-23T16:23:35.299Z,17.33
2022-09-23T16:26:03.407Z,13.75
2022-09-23T16:28:30.332Z,10.55
2022-09-23T16:30:57.256Z,6.22
2022-09-23T16:33:24.277Z,5.95
2022-09-23T16:35:53.243Z,6.43
2022-09-23T16:38:21.415Z,6.78
2022-09-23T16:40:48.668Z,7.05
2022-09-23T16:43:16.003Z,6.63
2022-09-23T16:45:48.380Z,7.65
2022-09-23T16:48:19.847Z,5.38
2022-09-23T16:50:47.930Z,4.68
2022-09-23T16:53:17.526Z,7.70
2022-09-23T16:55:44.660Z,6.95
2022-09-23T16:58:11.853Z,6.35
2022-09-23T17:00:58.523Z,9.70
2022-09-23T17:03:43.478Z,6.35
2022-09-23T17:06:13.090Z,7.18
2022-09-23T17:08:45.134Z,7.85
2022-09-23T17:11:12.150Z,4.13
2022-09-23T17:13:41.451Z,12.63
2022-09-23T17:16:09.566Z,9.05
2022-09-23T17:18:37.689Z,7.63
2022-09-23T17:21:06.792Z,9.80
2022-09-23T17:23:35.803Z,4.63
2022-09-23T17:26:05.515Z,6.40
2022-09-23T17:28:32.493Z,8.35
2022-09-23T17:31:04.928Z,5.70
2022-09-23T17:33:37.164Z,8.80
2022-09-23T17:36:13.129Z,18.77
2022-09-23T17:39:14.275Z,25.85
2022-09-23T17:41:46.123Z,27.15
2022-09-23T17:44:14.238Z,12.23
2022-09-23T17:46:41.589Z,6.50
2022-09-23T17:49:09.501Z,6.95
2022-09-23T17:51:36.961Z,5.60
2022-09-23T17:54:04.400Z,7.28
2022-09-23T17:56:31.584Z,6.03
2022-09-23T17:59:01.984Z,3.70
2022-09-23T18:01:29.582Z,2.83
2022-09-23T18:03:58.965Z,6.93
2022-09-23T18:06:32.563Z,6.50
2022-09-23T18:09:07.229Z,4.80
2022-09-23T18:11:40.927Z,12.68
2022-09-23T18:14:20.969Z,8.52
2022-09-23T18:16:54.296Z,4.78
2022-09-23T18:19:23.662Z,5.82
2022-09-23T18:21:52.938Z,7.03
2022-09-23T18:24:32.375Z,5.07
2022-09-23T18:27:00.918Z,5.57
2022-09-23T18:29:28.495Z,6.13
2022-09-23T18:31:56.036Z,6.95
2022-09-23T18:34:25.423Z,8.77
2022-09-23T18:36:56.274Z,7.50
2022-09-23T18:39:23.515Z,7.43
2022-09-23T18:41:50.648Z,10.70
2022-09-23T18:44:19.543Z,5.25
2022-09-23T18:46:47.807Z,9.50
2022-09-23T18:49:33.582Z,5.82
2022-09-23T18:52:00.845Z,9.18
2022-09-23T18:54:29.148Z,8.52
2022-09-23T18:56:56.795Z,12.05
2022-09-23T18:59:28.141Z,8.38
2022-09-23T19:01:57.325Z,9.00
2022-09-23T19:04:26.840Z,8.13
2022-09-23T19:06:56.880Z,9.30
2022-09-23T19:09:24.233Z,11.45
2022-09-23T19:11:52.579Z,8.43
2022-09-23T19:14:19.918Z,8.48
2022-09-23T19:16:49.391Z,4.13
2022-09-23T19:19:16.937Z,6.25
2022-09-23T19:21:43.950Z,5.85
2022-09-23T19:24:16.057Z,5.03
2022-09-23T19:26:46.072Z,7.18
2022-09-23T19:29:19.727Z,9.15
2022-09-23T19:31:46.596Z,6.80
2022-09-23T19:34:15.817Z,5.57
2022-09-23T19:36:45.044Z,5.10
2022-09-23T19:39:17.582Z,3.50
2022-09-23T19:41:45.216Z,4.15
2022-09-23T19:44:12.130Z,5.35
2022-09-23T19:46:41.923Z,6.60
2022-09-23T19:49:09.389Z,10.32
2022-09-23T19:51:36.966Z,5.97
2022-09-23T19:54:05.879Z,6.38
2022-09-23T19:56:38.919Z,5.13
2022-09-23T19:59:09.854Z,6.63
2022-09-23T20:01:37.428Z,4.68
2022-09-23T20:04:04.650Z,7.00
2022-09-23T20:06:38.306Z,10.15
2022-09-23T20:09:07.104Z,6.00
2022-09-23T20:11:36.403Z,7.78
2022-09-23T20:14:06.535Z,6.00
2022-09-23T20:16:40.775Z,5.97
2022-09-23T20:19:07.877Z,4.85
2022-09-23T20:21:35.732Z,8.07
2022-09-23T20:24:09.749Z,6.65
2022-09-23T20:29:22.307Z,6.80
2022-09-23T20:31:49.602Z,8.52
2022-09-23T20:34:16.517Z,8.20
2022-09-23T20:36:43.910Z,8.57
2022-09-23T20:39:10.807Z,7.45
2022-09-23T20:41:43.174Z,8.55
2022-09-23T20:44:14.726Z,6.63
2022-09-23T20:46:47.859Z,5.65
2022-09-23T20:49:16.703Z,6.55
2022-09-23T20:51:43.577Z,6.13
2022-09-23T20:54:12.112Z,7.63
2022-09-23T20:56:40.355Z,9.40
2022-09-23T20:59:07.481Z,7.47
2022-09-23T21:01:37.244Z,6.53
2022-09-23T21:04:10.882Z,5.47
2022-09-23T21:06:39.434Z,7.70
2022-09-23T21:09:07.886Z,6.10
2022-09-23T21:11:37.580Z,6.00
2022-09-23T21:14:06.335Z,7.40
2022-09-23T21:16:33.394Z,5.45
2022-09-23T21:19:00.828Z,6.97
2022-09-23T21:21:28.143Z,4.82
2022-09-23T21:23:58.212Z,6.88
2022-09-23T21:26:31.164Z,11.02
2022-09-23T21:29:00.157Z,10.82
2022-09-23T21:31:34.064Z,5.70
2022-09-23T21:34:07.041Z,4.22
2022-09-23T21:36:39.998Z,7.40
2022-09-23T21:39:09.229Z,5.25
2022-09-23T21:41:37.187Z,6.25
2022-09-23T21:44:04.871Z,6.47
2022-09-23T21:46:35.690Z,6.32
2022-09-23T21:49:03.983Z,18.55
2022-09-23T21:51:41.628Z,4.78
2022-09-23T21:54:16.911Z,14.15
2022-09-23T21:56:45.184Z,12.38
2022-09-23T21:59:12.117Z,6.65
2022-09-23T22:01:54.983Z,4.93
2022-09-23T22:04:22.946Z,5.32
2022-09-23T22:06:49.951Z,5.30
2022-09-23T22:09:22.453Z,5.43
2022-09-23T22:12:08.057Z,9.25
2022-09-23T22:14:36.378Z,6.95
2022-09-23T22:17:05.293Z,4.75
2022-09-23T22:19:44.260Z,7.90
2022-09-23T22:22:14.663Z,5.82
2022-09-23T22:24:45.931Z,10.07
2022-09-23T22:27:14.206Z,4.75
2022-09-23T22:29:59.906Z,8.38
2022-09-23T22:32:41.973Z,5.57
2022-09-23T22:35:13.945Z,4.88
2022-09-23T22:37:42.268Z,7.50
2022-09-23T22:40:14.212Z,7.60
2022-09-23T22:42:42.403Z,9.13
2022-09-23T22:45:12.228Z,6.82
2022-09-23T22:47:41.487Z,12.45
2022-09-23T22:50:09.397Z,6.50
2022-09-23T22:52:38.232Z,6.85
2022-09-23T22:55:08.224Z,6.50
2022-09-23T22:57:35.588Z,6.28
2022-09-23T23:00:04.957Z,6.78
2022-09-23T23:02:31.966Z,7.50
2022-09-23T23:05:00.705Z,7.20
2022-09-23T23:07:27.573Z,6.88
2022-09-23T23:09:54.479Z,8.73
2022-09-23T23:12:21.814Z,6.57
2022-09-23T23:14:50.488Z,9.38
2022-09-23T23:17:18.749Z,6.65
2022-09-23T23:19:45.663Z,3.65
2022-09-23T23:22:12.529Z,5.82
2022-09-23T23:24:41.003Z,5.30
2022-09-23T23:27:07.957Z,5.80
2022-09-23T23:29:35.117Z,7.35
2022-09-23T23:32:02.224Z,7.20
2022-09-23T23:34:30.361Z,5.70
2022-09-23T23:36:57.715Z,5.53
2022-09-23T23:39:25.699Z,5.00
2022-09-23T23:41:55.282Z,4.40
2022-09-23T23:44:24.355Z,7.95
2022-09-23T23:46:52.791Z,4.13
2022-09-23T23:49:20.474Z,5.88
2022-09-23T23:55:04.845Z,5.53
2022-09-23T23:57:31.620Z,6.00
2022-09-23T23:59:58.721Z,4.00
